Time;durP1;ratioP1;P1;durP2;ratioP2;P2;SDS_P1;SDS_P2;PMS_P1;PMS_P2;Temp;Humidity;BMP_temperature;BMP_pressure;BME280_temperature;BME280_humidity;BME280_pressure;Samples;Min_cycle;Max_cycle;Signal;HPM_P1;HPM_P2
2023/09/11 00:01:04;;;;;;;8.37;7.17;;;;;;;21.31;nan;99417.78;4962158;28;20219;-85
2023/09/11 00:03:29;;;;;;;9.43;7.70;;;;;;;21.28;nan;99412.78;4961727;28;20791;-86
2023/09/11 00:06:05;;;;;;;9.20;7.67;;;;;;;21.24;nan;99414.09;4961543;28;20213;-85
2023/09/11 00:08:31;;;;;;;8.73;7.80;;;;;;;21.21;nan;99409.94;4959369;28;20724;-86
2023/09/11 00:10:58;;;;;;;10.30;9.40;;;;;;;21.15;nan;99410.63;4964470;28;20477;-86
2023/09/11 00:13:28;;;;;;;12.40;8.17;;;;;;;21.10;nan;99407.63;4962663;28;20223;-86
2023/09/11 00:15:53;;;;;;;9.03;8.13;;;;;;;21.08;nan;99406.13;4977746;28;20439;-85
2023/09/11 00:18:24;;;;;;;9.00;7.13;;;;;;;21.06;nan;99400.13;4979970;28;20508;-85
2023/09/11 00:20:50;;;;;;;7.87;6.30;;;;;;;21.04;nan;99412.84;4978515;28;20201;-85
2023/09/11 00:23:15;;;;;;;7.77;7.00;;;;;;;20.99;nan;99398.13;4967581;28;20802;-85
2023/09/11 00:25:44;;;;;;;7.10;6.40;;;;;;;20.98;nan;99391.13;4961393;28;20219;-85
2023/09/11 00:28:09;;;;;;;8.07;7.27;;;;;;;20.96;nan;99394.97;4967526;28;20981;-85
2023/09/11 00:30:45;;;;;;;12.57;7.00;;;;;;;20.92;nan;99394.47;4961088;28;20488;-85
2023/09/11 00:33:13;;;;;;;9.23;8.17;;;;;;;20.87;nan;99395.97;4960368;28;20581;-85
2023/09/11 00:35:43;;;;;;;9.10;8.20;;;;;;;20.78;nan;99395.16;4947103;28;20513;-86
2023/09/11 00:38:08;;;;;;;7.63;6.90;;;;;;;20.71;nan;99399.50;4961104;28;20459;-85
2023/09/11 00:40:37;;;;;;;8.50;6.90;;;;;;;20.65;nan;99392.16;4935123;28;20471;-85
2023/09/11 00:43:05;;;;;;;10.73;6.57;;;;;;;20.62;nan;99397.84;4962911;28;20215;-85
2023/09/11 00:45:39;;;;;;;7.17;6.53;;;;;;;20.59;nan;99392.84;4953676;28;20891;-85
2023/09/11 00:48:05;;;;;;;10.03;6.53;;;;;;;20.55;nan;99390.50;4952973;28;20844;-85
2023/09/11 00:50:31;;;;;;;10.10;6.47;;;;;;;20.53;nan;99389.84;4951512;28;21205;-85
2023/09/11 00:52:57;;;;;;;9.43;7.70;;;;;;;20.54;nan;99394.16;4963244;28;20243;-85
2023/09/11 00:55:23;;;;;;;7.40;6.70;;;;;;;20.56;nan;99388.69;4963784;28;20447;-85
2023/09/11 00:57:49;;;;;;;8.17;7.37;;;;;;;20.55;nan;99385.19;4965885;28;20244;-85
2023/09/11 01:00:15;;;;;;;8.50;7.33;;;;;;;20.54;nan;99390.66;4975731;28;20429;-85
2023/09/11 01:02:40;;;;;;;11.07;7.70;;;;;;;20.51;nan;99391.81;4972277;28;20458;-86
2023/09/11 01:05:07;;;;;;;8.50;7.17;;;;;;;20.50;nan;99384.81;4965622;28;20461;-85
2023/09/11 01:07:34;;;;;;;7.83;7.03;;;;;;;20.47;nan;99385.16;4956087;28;20457;-86
2023/09/11 01:10:00;;;;;;;11.70;7.80;;;;;;;20.43;nan;99382.97;4965519;28;20461;-86
2023/09/11 01:12:25;;;;;;;9.70;7.80;;;;;;;20.40;nan;99385.97;4967866;28;20475;-86
2023/09/11 01:14:51;;;;;;;7.57;6.60;;;;;;;20.37;nan;99384.47;4969101;28;21045;-86
2023/09/11 01:17:43;;;;;;;9.00;7.57;;;;;;;20.36;nan;99387.28;4966180;28;20724;-86
2023/09/11 01:20:39;;;;;;;8.93;8.03;;;;;;;20.32;nan;99382.28;4954387;28;20213;-86
2023/09/11 01:23:39;;;;;;;8.57;7.20;;;;;;;20.28;nan;99386.31;4949418;28;20444;-86
2023/09/11 01:26:21;;;;;;;8.53;7.00;;;;;;;20.26;nan;99385.63;4961268;28;20468;-86
2023/09/11 01:29:09;;;;;;;11.53;6.00;;;;;;;20.21;nan;99389.78;4950642;28;20463;-86
2023/09/11 01:31:36;;;;;;;8.50;5.33;;;;;;;20.18;nan;99385.63;4953110;28;20650;-85
2023/09/11 01:34:07;;;;;;;6.80;5.77;;;;;;;20.19;nan;99386.44;4950194;28;21623;-86
2023/09/11 01:36:32;;;;;;;6.87;6.13;;;;;;;20.19;nan;99378.44;4953862;28;20541;-85
2023/09/11 01:39:42;;;;;;;8.23;7.30;;;;;;;20.17;nan;99377.78;4959988;28;20473;-84
2023/09/11 01:42:15;;;;;;;8.80;7.93;;;;;;;20.12;nan;99375.63;4956616;28;20255;-86
2023/09/11 01:44:46;;;;;;;9.57;7.60;;;;;;;20.09;nan;99386.59;4964753;28;23160;-86
2023/09/11 01:47:16;;;;;;;8.27;7.47;;;;;;;20.06;nan;99369.13;4952264;28;20439;-85
2023/09/11 01:49:44;;;;;;;9.43;8.43;;;;;;;20.03;nan;99382.75;4962608;28;20428;-86
2023/09/11 01:52:11;;;;;;;10.33;7.40;;;;;;;20.01;nan;99376.78;4953515;28;21202;-85
2023/09/11 01:54:37;;;;;;;7.77;6.97;;;;;;;19.97;nan;99377.25;4934512;28;20465;-84
2023/09/11 01:57:05;;;;;;;10.70;8.13;;;;;;;19.89;nan;99375.41;4954549;28;20477;-86
2023/09/11 01:59:31;;;;;;;9.20;8.10;;;;;;;19.86;nan;99378.41;4951190;28;21193;-86
2023/09/11 02:01:56;;;;;;;9.77;7.90;;;;;;;19.83;nan;99382.22;4954519;28;20570;-86
2023/09/11 02:04:22;;;;;;;8.60;7.80;;;;;;;19.82;nan;99380.56;4932341;28;20999;-85
2023/09/11 02:06:48;;;;;;;10.68;9.05;;;;;;;19.81;nan;99384.22;4963771;28;20446;-85
2023/09/11 02:09:13;;;;;;;11.50;8.20;;;;;;;19.81;nan;99380.72;4955700;28;20209;-86
2023/09/11 02:11:39;;;;;;;8.43;7.33;;;;;;;19.77;nan;99382.88;4960372;28;20256;-85
2023/09/11 02:14:04;;;;;;;9.57;7.20;;;;;;;19.77;nan;99382.06;4948805;28;20268;-86
2023/09/11 02:16:30;;;;;;;12.57;7.60;;;;;;;19.75;nan;99382.19;4958172;28;20312;-86
2023/09/11 02:18:55;;;;;;;13.47;8.20;;;;;;;19.74;nan;99388.53;4945466;28;20200;-86
2023/09/11 02:21:21;;;;;;;10.20;7.20;;;;;;;19.73;nan;99380.69;4958903;28;20220;-85
2023/09/11 02:23:52;;;;;;;8.57;7.60;;;;;;;19.71;nan;99377.34;4949597;28;20201;-86
2023/09/11 02:26:18;;;;;;;12.00;7.37;;;;;;;19.69;nan;99379.34;4944467;28;20555;-86
2023/09/11 02:28:46;;;;;;;9.57;7.90;;;;;;;19.69;nan;99390.03;4956509;28;21030;-86
2023/09/11 02:31:21;;;;;;;8.00;7.00;;;;;;;19.69;nan;99379.34;4945031;28;20608;-86
2023/09/11 02:33:52;;;;;;;9.10;6.70;;;;;;;19.70;nan;99375.69;4941719;28;20469;-86
2023/09/11 02:36:23;;;;;;;7.50;6.57;;;;;;;19.70;nan;99381.84;4947959;28;20465;-86
2023/09/11 02:38:51;;;;;;;9.50;7.27;;;;;;;19.71;nan;99385.34;4956778;28;20446;-86
2023/09/11 02:41:25;;;;;;;7.73;6.93;;;;;;;19.71;nan;99380.84;4963361;28;20449;-86
2023/09/11 02:43:57;;;;;;;8.07;7.27;;;;;;;19.70;nan;99378.34;4962242;28;20443;-86
2023/09/11 02:46:35;;;;;;;9.40;7.47;;;;;;;19.67;nan;99384.84;4960039;28;20540;-86
2023/09/11 02:49:07;;;;;;;11.87;9.07;;;;;;;19.63;nan;99378.97;4948055;28;20449;-86
2023/09/11 02:51:57;;;;;;;9.83;7.10;;;;;;;19.57;nan;99376.09;4961361;28;20438;-86
2023/09/11 02:54:42;;;;;;;9.23;7.40;;;;;;;19.55;nan;99381.63;4965010;28;20473;-86
2023/09/11 02:57:23;;;;;;;8.70;7.80;;;;;;;19.54;nan;99371.94;4948501;28;20812;-86
2023/09/11 02:59:55;;;;;;;8.50;7.67;;;;;;;19.53;nan;99378.28;4957063;28;20440;-86
2023/09/11 03:02:32;;;;;;;9.03;7.97;;;;;;;19.50;nan;99370.59;4951250;28;20462;-86
2023/09/11 03:05:08;;;;;;;10.18;9.18;;;;;;;19.43;nan;99365.06;4951223;28;20441;-86
2023/09/11 03:07:42;;;;;;;9.07;7.83;;;;;;;19.42;nan;99367.91;4956133;28;20200;-86
2023/09/11 03:10:17;;;;;;;11.30;8.20;;;;;;;19.43;nan;99369.56;4955319;28;20447;-86
2023/09/11 03:12:49;;;;;;;9.70;7.13;;;;;;;19.41;nan;99374.22;4967413;28;20482;-86
2023/09/11 03:15:19;;;;;;;10.17;7.23;;;;;;;19.39;nan;99362.91;4965633;28;21137;-86
2023/09/11 03:18:11;;;;;;;9.63;7.40;;;;;;;19.38;nan;99366.53;4951052;28;21003;-86
2023/09/11 03:20:56;;;;;;;11.93;8.20;;;;;;;19.36;nan;99369.38;4961247;28;21172;-86
2023/09/11 03:23:25;;;;;;;10.10;8.13;;;;;;;19.33;nan;99375.00;4954736;28;20436;-86
2023/09/11 03:26:01;;;;;;;7.50;6.70;;;;;;;19.32;nan;99377.84;4952658;28;20460;-86
2023/09/11 03:28:45;;;;;;;8.93;8.00;;;;;;;19.28;nan;99371.16;4953023;28;20443;-86
2023/09/11 03:31:20;;;;;;;9.63;8.70;;;;;;;19.22;nan;99364.63;4947631;28;20480;-87
2023/09/11 03:34:03;;;;;;;7.73;6.93;;;;;;;19.19;nan;99367.63;4945137;28;20452;-86
2023/09/11 03:36:36;;;;;;;8.50;7.60;;;;;;;19.18;nan;99365.97;4951585;28;20476;-86
2023/09/11 03:39:08;;;;;;;9.27;7.20;;;;;;;19.17;nan;99365.13;4957616;28;20468;-86
2023/09/11 03:42:04;;;;;;;12.97;7.80;;;;;;;19.18;nan;99360.63;4946831;28;20449;-86
2023/09/11 03:44:35;;;;;;;8.40;7.60;;;;;;;19.15;nan;99361.78;4956074;28;20522;-86
2023/09/11 03:47:27;;;;;;;11.60;8.67;;;;;;;19.11;nan;99354.25;4947116;28;20500;-86
2023/09/11 03:50:18;;;;;;;8.47;7.50;;;;;;;19.08;nan;99359.91;4947941;28;20444;-86
2023/09/11 03:52:51;;;;;;;8.83;7.70;;;;;;;19.08;nan;99354.59;4948082;28;20547;-86
2023/09/11 03:55:29;;;;;;;9.80;8.47;;;;;;;19.07;nan;99355.59;4963568;28;20480;-86
2023/09/11 03:58:03;;;;;;;10.90;8.63;;;;;;;19.03;nan;99349.72;4948287;28;20506;-86
2023/09/11 04:00:40;;;;;;;12.73;7.57;;;;;;;19.01;nan;99349.06;4959547;28;20953;-86
2023/09/11 04:03:08;;;;;;;11.50;9.60;;;;;;;19.00;nan;99342.88;4969656;28;20450;-81
2023/09/11 04:05:33;;;;;;;11.47;8.50;;;;;;;19.00;nan;99347.38;4957825;28;20433;-82
2023/09/11 04:07:58;;;;;;;9.43;8.53;;;;;;;19.00;nan;99348.22;4954219;28;20201;-83
2023/09/11 04:10:24;;;;;;;7.93;7.10;;;;;;;19.01;nan;99351.72;4943161;28;20200;-83
2023/09/11 04:12:49;;;;;;;8.70;7.67;;;;;;;19.01;nan;99351.72;4960659;28;20626;-82
2023/09/11 04:15:15;;;;;;;11.00;8.40;;;;;;;19.00;nan;99350.88;4969328;28;20215;-82
2023/09/11 04:17:40;;;;;;;9.40;8.20;;;;;;;19.03;nan;99365.69;4963156;28;20213;-83
2023/09/11 04:20:09;;;;;;;8.37;7.60;;;;;;;19.00;nan;99358.03;4968508;28;20207;-81
2023/09/11 04:22:35;;;;;;;7.80;6.43;;;;;;;18.92;nan;99350.00;4982349;28;20460;-82
2023/09/11 04:25:00;;;;;;;9.83;7.10;;;;;;;18.88;nan;99351.31;4965856;28;21159;-83
2023/09/11 04:27:26;;;;;;;9.60;7.50;;;;;;;18.86;nan;99342.66;4969975;28;20242;-82
2023/09/11 04:29:52;;;;;;;8.73;6.47;;;;;;;18.86;nan;99345.31;4955908;28;20232;-83
2023/09/11 04:32:20;;;;;;;8.53;7.70;;;;;;;18.80;nan;99336.13;4949926;28;20196;-83
2023/09/11 04:34:46;;;;;;;8.47;7.23;;;;;;;18.78;nan;99341.59;4935309;28;20452;-83
2023/09/11 04:37:13;;;;;;;8.77;7.03;;;;;;;18.78;nan;99340.78;4956131;28;20459;-83
2023/09/11 04:39:40;;;;;;;9.90;7.50;;;;;;;18.79;nan;99343.28;4955375;28;20220;-82
2023/09/11 04:42:12;;;;;;;7.50;6.77;;;;;;;18.81;nan;99336.97;4956146;28;20793;-82
2023/09/11 04:44:37;;;;;;;7.20;6.37;;;;;;;18.78;nan;99346.94;4957597;28;20443;-83
2023/09/11 04:47:03;;;;;;;8.40;6.40;;;;;;;18.77;nan;99341.78;4934596;28;20463;-83
2023/09/11 04:49:29;;;;;;;11.57;7.00;;;;;;;18.76;nan;99340.09;4946504;28;20201;-83
2023/09/11 04:51:54;;;;;;;10.13;6.57;;;;;;;18.73;nan;99346.53;4941894;28;21335;-82
2023/09/11 04:54:20;;;;;;;6.53;5.63;;;;;;;18.69;nan;99350.50;4957488;28;20290;-82
2023/09/11 04:56:45;;;;;;;6.30;5.83;;;;;;;18.67;nan;99347.16;4952278;28;20224;-82
2023/09/11 04:59:10;;;;;;;7.10;6.40;;;;;;;18.68;nan;99351.47;4940457;28;20197;-81
2023/09/11 05:01:36;;;;;;;8.27;6.67;;;;;;;18.70;nan;99346.00;4952859;28;20213;-82
2023/09/11 05:04:03;;;;;;;7.13;6.47;;;;;;;18.70;nan;99343.34;4955511;28;20182;-82
2023/09/11 05:06:28;;;;;;;10.00;9.00;;;;;;;18.72;nan;99338.72;4942084;28;20939;-82
2023/09/11 05:08:55;;;;;;;10.50;8.90;;;;;;;18.72;nan;99336.06;4951614;28;20519;-82
2023/09/11 05:11:20;;;;;;;14.47;11.93;;;;;;;18.73;nan;99343.88;4929173;28;21108;-81
2023/09/11 05:13:46;;;;;;;14.53;9.97;;;;;;;18.72;nan;99336.88;4942614;28;20468;-82
2023/09/11 05:16:12;;;;;;;10.30;8.77;;;;;;;18.69;nan;99342.53;4940923;28;20216;-82
2023/09/11 05:18:37;;;;;;;8.90;8.07;;;;;;;18.68;nan;99348.00;4924738;28;20467;-81
2023/09/11 05:21:03;;;;;;;11.33;9.33;;;;;;;18.67;nan;99351.66;4952117;28;20192;-80
2023/09/11 05:23:31;;;;;;;10.83;8.10;;;;;;;18.69;nan;99339.88;4955510;28;20426;-83
2023/09/11 05:25:57;;;;;;;15.03;10.17;;;;;;;18.70;nan;99346.84;4963247;28;20216;-82
2023/09/11 05:28:22;;;;;;;9.60;8.33;;;;;;;18.74;nan;99353.56;4961200;28;20946;-83
2023/09/11 05:30:49;;;;;;;9.90;8.77;;;;;;;18.77;nan;99355.91;4959756;28;20275;-83
2023/09/11 05:33:15;;;;;;;12.73;8.80;;;;;;;18.80;nan;99352.09;4971167;28;20201;-83
2023/09/11 05:35:40;;;;;;;9.03;8.13;;;;;;;18.87;nan;99360.28;4976461;28;20442;-83
2023/09/11 05:38:05;;;;;;;10.57;9.17;;;;;;;18.91;nan;99348.34;4970557;28;20200;-82
2023/09/11 05:40:31;;;;;;;14.33;9.90;;;;;;;18.99;nan;99361.69;4978953;28;20223;-82
2023/09/11 05:42:56;;;;;;;12.03;8.87;;;;;;;19.05;nan;99362.91;4960892;28;20189;-82
2023/09/11 05:45:22;;;;;;;8.80;8.00;;;;;;;19.10;nan;99357.94;4966971;28;20760;-83
2023/09/11 05:47:47;;;;;;;12.27;8.67;;;;;;;19.15;nan;99361.78;4954874;28;20212;-83
2023/09/11 05:50:17;;;;;;;10.10;8.33;;;;;;;19.20;nan;99362.16;4953868;28;20188;-83
2023/09/11 05:52:43;;;;;;;10.30;8.87;;;;;;;19.27;nan;99364.16;4962954;28;20284;-85
2023/09/11 05:55:09;;;;;;;14.70;9.00;;;;;;;19.33;nan;99360.84;4970536;28;20449;-84
2023/09/11 05:57:35;;;;;;;14.47;8.83;;;;;;;19.40;nan;99364.56;4964788;28;20456;-83
2023/09/11 06:00:09;;;;;;;13.40;8.50;;;;;;;19.45;nan;99357.75;4973687;28;20196;-84
2023/09/11 06:02:45;;;;;;;10.60;7.67;;;;;;;19.51;nan;99358.94;4975944;28;20454;-83
2023/09/11 06:05:12;;;;;;;12.48;11.18;;;;;;;19.58;nan;99357.31;4967365;28;20434;-84
2023/09/11 06:07:37;;;;;;;12.03;9.40;;;;;;;19.64;nan;99358.50;4969201;28;20219;-84
2023/09/11 06:10:04;;;;;;;14.43;9.27;;;;;;;19.72;nan;99352.38;4972626;28;20432;-84
2023/09/11 06:12:30;;;;;;;14.07;9.53;;;;;;;19.81;nan;99354.06;4960138;28;20259;-84
2023/09/11 06:14:56;;;;;;;12.23;9.37;;;;;;;19.88;nan;99352.41;4963171;28;20507;-83
2023/09/11 06:17:21;;;;;;;12.00;9.70;;;;;;;19.96;nan;99355.09;4959368;28;20501;-83
2023/09/11 06:19:46;;;;;;;16.33;9.50;;;;;;;20.28;nan;99350.78;4950447;28;20867;-83
2023/09/11 06:22:12;;;;;;;9.83;7.93;;;;;;;20.74;nan;99348.47;4962835;28;20524;-83
2023/09/11 06:24:38;;;;;;;9.67;7.83;;;;;;;21.02;nan;99353.41;4964237;28;20186;-83
2023/09/11 06:27:07;;;;;;;11.80;8.13;;;;;;;21.16;nan;99345.50;4961225;28;20650;-83
2023/09/11 06:29:33;;;;;;;12.70;8.57;;;;;;;21.25;nan;99353.50;4960499;28;20194;-83
2023/09/11 06:31:59;;;;;;;9.20;8.30;;;;;;;21.28;nan;99359.34;4962820;28;20523;-83
2023/09/11 06:34:24;;;;;;;12.80;9.67;;;;;;;21.30;nan;99359.97;4956970;28;20883;-83
2023/09/11 06:36:52;;;;;;;9.90;8.43;;;;;;;21.30;nan;99349.28;4956741;28;20215;-83
2023/09/11 06:39:19;;;;;;;11.37;9.37;;;;;;;21.31;nan;99355.50;4954794;28;20234;-84
2023/09/11 06:41:45;;;;;;;8.83;8.03;;;;;;;21.30;nan;99354.63;4961125;28;20481;-83
2023/09/11 06:44:10;;;;;;;14.40;9.73;;;;;;;21.33;nan;99354.31;4952596;28;20458;-83
2023/09/11 06:46:36;;;;;;;9.63;8.63;;;;;;;21.39;nan;99361.66;4956986;28;20214;-83
2023/09/11 06:49:01;;;;;;;11.63;9.00;;;;;;;21.46;nan;99344.94;4949375;28;20932;-83
2023/09/11 06:51:26;;;;;;;10.87;8.80;;;;;;;21.49;nan;99347.25;4950386;28;20212;-83
2023/09/11 06:53:54;;;;;;;9.87;8.07;;;;;;;21.53;nan;99359.28;4959308;28;20205;-83
2023/09/11 06:56:19;;;;;;;11.47;9.00;;;;;;;21.60;nan;99354.88;4956158;28;20273;-83
2023/09/11 06:58:45;;;;;;;10.40;7.77;;;;;;;21.67;nan;99350.50;4961949;28;20849;-83
2023/09/11 07:01:11;;;;;;;9.33;8.43;;;;;;;21.73;nan;99346.28;4957580;28;20201;-83
2023/09/11 07:03:37;;;;;;;8.23;7.50;;;;;;;21.77;nan;99353.78;4953015;28;20198;-82
2023/09/11 07:06:03;;;;;;;10.30;8.30;;;;;;;21.81;nan;99352.41;4955207;28;20520;-83
2023/09/11 07:08:29;;;;;;;12.03;8.63;;;;;;;21.88;nan;99353.38;4957572;28;20267;-83
2023/09/11 07:10:55;;;;;;;10.60;8.90;;;;;;;21.93;nan;99354.69;4954477;28;20498;-84
2023/09/11 07:13:21;;;;;;;10.10;8.87;;;;;;;21.97;nan;99354.16;4954856;28;20270;-83
2023/09/11 07:15:54;;;;;;;13.07;9.40;;;;;;;22.01;nan;99357.34;4959456;28;20792;-84
2023/09/11 07:18:20;;;;;;;14.73;9.63;;;;;;;22.04;nan;99362.31;4955182;28;20526;-84
2023/09/11 07:20:45;;;;;;;9.97;8.77;;;;;;;22.05;nan;99359.44;4952659;28;20489;-84
2023/09/11 07:23:10;;;;;;;10.63;9.00;;;;;;;22.11;nan;99357.91;4955938;28;20214;-84
2023/09/11 07:25:36;;;;;;;10.13;8.80;;;;;;;22.17;nan;99357.22;4956880;28;20227;-84
2023/09/11 07:28:01;;;;;;;10.70;8.67;;;;;;;22.22;nan;99354.84;4959828;28;20215;-83
2023/09/11 07:30:27;;;;;;;11.27;10.33;;;;;;;22.29;nan;99349.63;4958105;28;20200;-83
2023/09/11 07:32:53;;;;;;;9.57;8.67;;;;;;;22.42;nan;99359.72;4959970;28;20200;-84
2023/09/11 07:35:18;;;;;;;9.37;7.73;;;;;;;22.81;nan;99353.34;4944357;28;20812;-84
2023/09/11 07:37:43;;;;;;;9.73;8.73;;;;;;;23.57;nan;99349.47;4958046;28;20461;-84
2023/09/11 07:40:09;;;;;;;9.80;8.90;;;;;;;24.35;nan;99351.53;4953526;28;20228;-84
2023/09/11 07:42:36;;;;;;;11.00;8.30;;;;;;;25.15;nan;99348.47;4954976;28;20197;-84
2023/09/11 07:45:02;;;;;;;9.10;8.30;;;;;;;26.00;nan;99345.50;4957598;28;20843;-84
2023/09/11 07:47:27;;;;;;;9.97;8.27;;;;;;;26.67;nan;99341.84;4962864;28;20477;-84
2023/09/11 07:49:53;;;;;;;7.87;7.13;;;;;;;27.36;nan;99342.34;4958762;28;20248;-84
2023/09/11 07:52:18;;;;;;;9.00;8.20;;;;;;;28.09;nan;99330.38;4959529;28;20187;-85
2023/09/11 07:54:44;;;;;;;8.27;7.57;;;;;;;28.73;nan;99323.81;4961719;28;20216;-84
2023/09/11 07:57:09;;;;;;;8.70;7.33;;;;;;;29.33;nan;99323.22;4961160;28;20193;-84
2023/09/11 07:59:35;;;;;;;16.30;7.87;;;;;;;29.81;nan;99319.69;4956978;28;20305;-84
2023/09/11 08:02:01;;;;;;;10.47;8.30;;;;;;;30.33;nan;99319.16;4957392;28;20196;-84
2023/09/11 08:04:27;;;;;;;8.60;7.73;;;;;;;30.74;nan;99323.66;4961428;28;20204;-84
2023/09/11 08:06:52;;;;;;;9.93;8.10;;;;;;;31.20;nan;99321.16;4944988;28;21088;-84
2023/09/11 08:09:17;;;;;;;9.97;7.70;;;;;;;31.45;nan;99327.13;4965186;28;20200;-85
2023/09/11 08:11:43;;;;;;;8.10;7.30;;;;;;;31.79;nan;99326.41;4960213;28;20192;-84
2023/09/11 08:14:08;;;;;;;8.70;7.70;;;;;;;32.14;nan;99327.06;4981895;28;20228;-85
2023/09/11 08:16:34;;;;;;;8.00;7.30;;;;;;;32.36;nan;99323.63;4980931;28;20207;-84
2023/09/11 08:18:59;;;;;;;7.90;7.20;;;;;;;32.68;nan;99321.16;4982926;28;20196;-85
2023/09/11 08:21:25;;;;;;;8.60;7.60;;;;;;;32.86;nan;99311.88;4987995;28;20207;-84
2023/09/11 08:23:50;;;;;;;8.17;7.40;;;;;;;33.11;nan;99316.91;4969922;28;20203;-84
2023/09/11 08:26:16;;;;;;;7.70;6.40;;;;;;;33.19;nan;99316.47;4961305;28;20208;-84
2023/09/11 08:28:41;;;;;;;8.53;7.10;;;;;;;33.18;nan;99314.78;4960023;28;20223;-85
2023/09/11 08:31:07;;;;;;;8.30;7.50;;;;;;;33.34;nan;99310.38;4959135;28;20479;-84
2023/09/11 08:33:32;;;;;;;9.40;7.67;;;;;;;33.53;nan;99312.75;4952818;28;20197;-85
2023/09/11 08:35:58;;;;;;;14.03;8.27;;;;;;;33.56;nan;99313.09;4958920;28;20199;-85
2023/09/11 08:38:24;;;;;;;8.03;7.23;;;;;;;33.62;nan;99311.25;4954676;28;20651;-85
2023/09/11 08:40:49;;;;;;;7.97;6.80;;;;;;;33.84;nan;99308.50;4960387;28;20212;-85
2023/09/11 08:43:15;;;;;;;8.50;6.43;;;;;;;33.92;nan;99308.84;4945749;28;20607;-85
2023/09/11 08:45:41;;;;;;;9.33;7.27;;;;;;;33.92;nan;99300.66;4957182;28;20203;-84
2023/09/11 08:48:11;;;;;;;7.13;6.00;;;;;;;33.99;nan;99307.81;4956994;28;20187;-85
2023/09/11 08:50:44;;;;;;;8.53;7.63;;;;;;;33.95;nan;99312.13;4959251;28;20968;-85
2023/09/11 08:53:14;;;;;;;9.13;8.03;;;;;;;33.93;nan;99304.22;4958285;28;20464;-85
2023/09/11 08:55:40;;;;;;;11.93;7.30;;;;;;;33.90;nan;99304.72;4961699;28;20804;-85
2023/09/11 08:58:11;;;;;;;8.03;7.33;;;;;;;33.80;nan;99307.34;4958980;28;20451;-85
2023/09/11 09:00:36;;;;;;;9.37;8.00;;;;;;;33.53;nan;99304.59;4956306;28;21314;-85
2023/09/11 09:03:03;;;;;;;8.63;7.83;;;;;;;33.16;nan;99305.22;4950468;28;20482;-85
2023/09/11 09:05:31;;;;;;;11.27;8.40;;;;;;;32.55;nan;99305.19;4950924;28;20254;-85
2023/09/11 09:07:58;;;;;;;8.03;6.90;;;;;;;32.16;nan;99319.50;4954436;28;20440;-85
2023/09/11 09:10:25;;;;;;;9.00;7.70;;;;;;;32.01;nan;99319.25;4957804;28;21275;-83
2023/09/11 09:12:51;;;;;;;10.03;8.47;;;;;;;31.96;nan;99311.00;4953701;28;20472;-83
2023/09/11 09:15:17;;;;;;;10.27;6.80;;;;;;;31.88;nan;99311.38;4952099;28;20444;-83
2023/09/11 09:17:43;;;;;;;8.70;7.93;;;;;;;31.85;nan;99312.69;4949174;28;20599;-83
2023/09/11 09:20:10;;;;;;;8.70;7.80;;;;;;;31.74;nan;99314.38;4942021;28;20491;-83
2023/09/11 09:22:53;;;;;;;8.10;7.30;;;;;;;31.70;nan;99305.09;4954148;28;20223;-82
2023/09/11 09:25:18;;;;;;;8.27;7.40;;;;;;;31.69;nan;99308.03;4953793;28;20486;-83
2023/09/11 09:27:44;;;;;;;12.20;7.60;;;;;;;31.60;nan;99298.66;4954405;28;20503;-83
2023/09/11 09:30:19;;;;;;;9.10;8.10;;;;;;;31.53;nan;99302.31;4952447;28;20216;-83
2023/09/11 09:32:47;;;;;;;10.50;7.03;;;;;;;31.56;nan;99294.75;4949841;28;20211;-83
2023/09/11 09:35:13;;;;;;;6.80;6.10;;;;;;;31.58;nan;99293.44;4952724;28;20483;-84
2023/09/11 09:37:39;;;;;;;7.90;7.10;;;;;;;31.54;nan;99292.25;4961836;28;20871;-82
2023/09/11 09:40:11;;;;;;;8.50;7.10;;;;;;;31.34;nan;99294.56;4969306;28;21076;-82
2023/09/11 09:43:03;;;;;;;8.67;7.83;;;;;;;31.26;nan;99293.06;4972726;28;20212;-83
2023/09/11 09:45:30;;;;;;;8.77;7.00;;;;;;;31.35;nan;99293.50;4949874;28;20456;-82
2023/09/11 09:48:18;;;;;;;8.17;7.37;;;;;;;31.29;nan;99284.44;4966001;28;20459;-83
2023/09/11 09:50:53;;;;;;;14.43;7.40;;;;;;;31.17;nan;99286.38;4973864;28;20455;-83
2023/09/11 09:53:21;;;;;;;10.57;7.37;;;;;;;31.16;nan;99277.38;4971469;28;20573;-84
2023/09/11 09:59:09;;;;;;;8.20;7.40;;;;;;;31.25;nan;99277.84;4950434;28;20488;-79
2023/09/11 10:01:47;;;;;;;7.17;6.53;;;;;;;31.28;nan;99274.66;4952922;28;20797;-79
2023/09/11 10:04:16;;;;;;;8.30;6.23;;;;;;;31.42;nan;99267.88;4960529;28;20304;-79
2023/09/11 10:06:41;;;;;;;7.80;6.90;;;;;;;31.52;nan;99264.56;4958261;28;20444;-79
2023/09/11 10:09:10;;;;;;;7.77;6.97;;;;;;;31.56;nan;99264.88;4958444;28;20977;-79
2023/09/11 10:11:37;;;;;;;6.73;6.07;;;;;;;31.68;nan;99262.94;4956193;28;20287;-79
2023/09/11 10:14:06;;;;;;;8.40;7.50;;;;;;;31.84;nan;99256.72;4959031;28;20476;-79
2023/09/11 10:16:31;;;;;;;8.30;7.10;;;;;;;31.89;nan;99253.25;4961387;28;20448;-79
2023/09/11 10:18:59;;;;;;;7.23;6.53;;;;;;;32.05;nan;99248.94;4957670;28;20562;-79
2023/09/11 10:21:26;;;;;;;8.90;6.90;;;;;;;32.18;nan;99246.69;4958402;28;20679;-79
2023/09/11 10:23:52;;;;;;;7.50;6.80;;;;;;;32.06;nan;99245.16;4961739;28;20447;-79
2023/09/11 10:26:23;;;;;;;12.10;7.93;;;;;;;31.90;nan;99242.16;4959278;28;20975;-79
2023/09/11 10:28:52;;;;;;;6.80;6.03;;;;;;;31.91;nan;99235.63;4956721;28;20998;-79
2023/09/11 10:31:25;;;;;;;6.47;5.87;;;;;;;32.07;nan;99238.63;4959457;28;20432;-78
2023/09/11 10:33:54;;;;;;;7.80;6.27;;;;;;;32.18;nan;99243.16;4956808;28;20683;-79
2023/09/11 10:36:27;;;;;;;6.57;6.07;;;;;;;32.29;nan;99234.09;4956019;28;20443;-79
2023/09/11 10:38:56;;;;;;;6.30;5.70;;;;;;;32.37;nan;99230.94;4954665;28;20921;-78
2023/09/11 10:41:23;;;;;;;7.13;6.50;;;;;;;32.44;nan;99232.69;4957954;28;20539;-78
2023/09/11 10:43:49;;;;;;;6.67;5.63;;;;;;;32.43;nan;99225.59;4956403;28;20447;-78
2023/09/11 10:46:31;;;;;;;7.53;6.83;;;;;;;32.44;nan;99225.34;4946230;28;20472;-78
2023/09/11 10:48:58;;;;;;;6.40;5.80;;;;;;;32.44;nan;99222.63;4953780;28;20507;-78
2023/09/11 10:51:24;;;;;;;7.53;6.63;;;;;;;32.49;nan;99220.03;4953309;28;20987;-78
2023/09/11 10:53:50;;;;;;;8.60;6.80;;;;;;;32.56;nan;99214.38;4949259;28;20481;-78
2023/09/11 10:56:16;;;;;;;7.87;7.17;;;;;;;32.65;nan;99204.75;4951127;28;20200;-78
2023/09/11 10:58:41;;;;;;;7.80;7.10;;;;;;;32.69;nan;99200.41;4955179;28;20460;-78
2023/09/11 11:01:07;;;;;;;6.93;6.13;;;;;;;32.76;nan;99203.78;4955352;28;20708;-78
2023/09/11 11:03:35;;;;;;;6.60;6.00;;;;;;;32.74;nan;99199.66;4954771;28;20565;-78
2023/09/11 11:06:01;;;;;;;7.20;6.50;;;;;;;32.73;nan;99198.84;4953212;28;20836;-78
2023/09/11 11:08:34;;;;;;;7.90;7.20;;;;;;;32.71;nan;99195.56;4956370;28;20894;-78
2023/09/11 11:11:01;;;;;;;7.57;6.17;;;;;;;32.68;nan;99189.81;4954515;28;20451;-78
2023/09/11 11:13:26;;;;;;;6.23;5.63;;;;;;;32.61;nan;99190.81;4954206;28;20992;-78
2023/09/11 11:16:20;;;;;;;7.93;6.47;;;;;;;32.62;nan;99183.47;4953814;28;20454;-78
2023/09/11 11:18:45;;;;;;;6.23;5.73;;;;;;;32.66;nan;99175.63;4952338;28;20296;-78
2023/09/11 11:21:11;;;;;;;7.83;7.07;;;;;;;32.69;nan;99180.56;4953700;28;20548;-79
2023/09/11 11:23:52;;;;;;;12.20;7.67;;;;;;;32.70;nan;99174.84;4955295;28;20380;-79
2023/09/11 11:26:17;;;;;;;7.20;6.50;;;;;;;32.66;nan;99168.28;4955238;28;20204;-79
2023/09/11 11:28:45;;;;;;;7.97;7.17;;;;;;;32.59;nan;99170.38;4950656;28;20754;-79
2023/09/11 11:31:21;;;;;;;8.10;7.27;;;;;;;32.53;nan;99171.38;4955004;28;21216;-79
2023/09/11 11:33:49;;;;;;;8.67;6.83;;;;;;;32.55;nan;99161.91;4955650;28;20455;-79
2023/09/11 11:36:16;;;;;;;9.67;7.60;;;;;;;32.56;nan;99155.38;4954694;28;20455;-79
2023/09/11 11:38:42;;;;;;;7.50;6.57;;;;;;;32.62;nan;99164.44;4952949;28;20471;-79
2023/09/11 11:41:09;;;;;;;9.20;7.40;;;;;;;32.71;nan;99157.50;4956048;28;20505;-79
2023/09/11 11:43:35;;;;;;;6.80;6.20;;;;;;;32.73;nan;99155.34;4956829;28;20825;-79
2023/09/11 11:46:01;;;;;;;7.20;6.60;;;;;;;32.70;nan;99157.72;4953469;28;20452;-79
2023/09/11 11:48:27;;;;;;;6.50;5.50;;;;;;;32.69;nan;99167.78;4956438;28;21201;-79
2023/09/11 11:50:53;;;;;;;7.23;6.63;;;;;;;32.64;nan;99150.59;4955031;28;20227;-79
2023/09/11 11:53:21;;;;;;;7.80;5.50;;;;;;;32.64;nan;99158.75;4956569;28;20542;-79
2023/09/11 11:55:47;;;;;;;9.30;7.20;;;;;;;32.61;nan;99151.91;4956298;28;20558;-79
2023/09/11 11:58:14;;;;;;;6.23;5.63;;;;;;;32.55;nan;99142.06;4951362;28;20468;-79